createdAt,value
2022-11-04T00:01:58.484Z,13.60
2022-11-04T00:04:28.234Z,13.60
2022-11-04T00:06:57.096Z,13.60
2022-11-04T00:09:28.155Z,13.60
2022-11-04T00:12:15.196Z,13.60
2022-11-04T00:14:42.518Z,13.60
2022-11-04T00:17:19.292Z,13.60
2022-11-04T00:20:06.446Z,13.60
2022-11-04T00:22:53.097Z,13.60
2022-11-04T00:25:42.524Z,13.70
2022-11-04T00:28:38.433Z,13.60
2022-11-04T00:31:27.206Z,13.60
2022-11-04T00:33:57.094Z,13.60
2022-11-04T00:36:25.721Z,13.70
2022-11-04T00:38:53.597Z,13.70
2022-11-04T00:41:27.910Z,13.60
2022-11-04T00:44:02.842Z,13.60
2022-11-04T00:46:31.875Z,13.70
2022-11-04T00:48:59.202Z,13.60
2022-11-04T00:51:27.174Z,13.70
2022-11-04T00:53:54.651Z,13.70
2022-11-04T00:56:22.172Z,13.70
2022-11-04T00:58:50.154Z,13.70
2022-11-04T01:01:19.125Z,13.70
2022-11-04T01:03:49.258Z,13.70
2022-11-04T01:06:17.321Z,13.70
2022-11-04T01:08:44.647Z,13.70
2022-11-04T01:11:12.677Z,13.70
2022-11-04T01:13:40.098Z,13.70
2022-11-04T01:16:10.095Z,13.60
2022-11-04T01:18:37.870Z,13.60
2022-11-04T01:21:07.543Z,13.70
2022-11-04T01:23:35.413Z,13.60
2022-11-04T01:26:07.716Z,13.70
2022-11-04T01:28:35.129Z,13.70
2022-11-04T01:31:11.427Z,13.70
2022-11-04T01:33:39.136Z,13.70
2022-11-04T01:36:08.318Z,13.70
2022-11-04T01:38:35.680Z,13.70
2022-11-04T01:41:04.210Z,13.70
2022-11-04T01:43:46.414Z,13.70
2022-11-04T01:46:26.051Z,13.70
2022-11-04T01:48:58.845Z,13.60
2022-11-04T01:51:28.027Z,13.60
2022-11-04T01:53:56.552Z,13.60
2022-11-04T01:56:26.365Z,13.60
2022-11-04T01:58:56.821Z,13.60
2022-11-04T02:01:24.359Z,13.60
2022-11-04T02:04:17.624Z,13.60
2022-11-04T02:06:47.818Z,13.60
2022-11-04T02:09:17.043Z,13.60
2022-11-04T02:12:03.130Z,13.60
2022-11-04T02:14:32.348Z,13.60
2022-11-04T02:17:11.761Z,13.60
2022-11-04T02:19:53.765Z,13.60
2022-11-04T02:22:52.704Z,13.60
2022-11-04T02:25:31.761Z,13.60
2022-11-04T02:28:47.125Z,13.60
2022-11-04T02:31:43.096Z,13.60
2022-11-04T02:34:29.167Z,13.60
2022-11-04T02:37:19.989Z,13.60
2022-11-04T02:39:55.864Z,13.60
2022-11-04T02:42:31.150Z,13.50
2022-11-04T02:45:21.114Z,13.50
2022-11-04T02:47:54.234Z,13.60
2022-11-04T02:50:31.292Z,13.60
2022-11-04T02:53:10.661Z,13.60
2022-11-04T02:55:49.587Z,13.60
2022-11-04T02:58:23.657Z,13.60
2022-11-04T03:00:52.326Z,13.60
2022-11-04T03:03:25.605Z,13.60
2022-11-04T03:05:55.502Z,13.60
2022-11-04T03:08:31.182Z,13.60
2022-11-04T03:11:24.471Z,13.60
2022-11-04T03:13:59.450Z,13.60
2022-11-04T03:16:38.722Z,13.60
2022-11-04T03:19:15.065Z,13.60
2022-11-04T03:21:54.627Z,13.60
2022-11-04T03:24:22.250Z,13.60
2022-11-04T03:26:59.483Z,13.60
2022-11-04T03:29:30.952Z,13.60
2022-11-04T03:32:04.294Z,13.60
2022-11-04T03:34:32.422Z,13.70
2022-11-04T03:37:00.197Z,13.60
2022-11-04T03:39:27.731Z,13.60
2022-11-04T03:42:00.796Z,13.70
2022-11-04T03:44:29.879Z,13.70
2022-11-04T03:46:58.018Z,13.70
2022-11-04T03:49:27.152Z,13.70
2022-11-04T03:51:54.577Z,13.70
2022-11-04T03:54:21.815Z,13.70
2022-11-04T03:57:22.434Z,13.70
2022-11-04T04:00:12.744Z,13.70
2022-11-04T04:02:58.982Z,13.70
2022-11-04T04:05:28.322Z,13.60
2022-11-04T04:08:18.104Z,13.60
2022-11-04T04:11:04.346Z,13.60
2022-11-04T04:13:37.501Z,13.50
2022-11-04T04:16:10.450Z,13.50
2022-11-04T04:18:42.612Z,13.50
2022-11-04T04:21:14.926Z,13.40
2022-11-04T04:24:03.837Z,13.40
2022-11-04T04:26:52.849Z,13.40
2022-11-04T04:29:21.665Z,13.40
2022-11-04T04:31:49.942Z,13.40
2022-11-04T04:34:22.661Z,13.40
2022-11-04T04:36:58.711Z,13.40
2022-11-04T04:39:53.866Z,13.40
2022-11-04T04:42:39.999Z,13.50
2022-11-04T04:45:08.993Z,13.50
2022-11-04T04:47:41.653Z,13.50
2022-11-04T04:50:10.983Z,13.50
2022-11-04T04:52:41.494Z,13.50
2022-11-04T04:55:09.280Z,13.50
2022-11-04T04:57:36.733Z,13.40
2022-11-04T05:00:06.600Z,13.40
2022-11-04T05:02:34.222Z,13.50
2022-11-04T05:05:02.035Z,13.50
2022-11-04T05:07:30.156Z,13.40
2022-11-04T05:09:58.191Z,13.50
2022-11-04T05:12:26.025Z,13.50
2022-11-04T05:14:53.650Z,13.40
2022-11-04T05:17:21.114Z,13.40
2022-11-04T05:19:48.520Z,13.50
2022-11-04T05:22:16.106Z,13.40
2022-11-04T05:24:43.728Z,13.40
2022-11-04T05:27:11.128Z,13.40
2022-11-04T05:29:38.518Z,13.40
2022-11-04T05:32:06.214Z,13.40
2022-11-04T05:34:33.608Z,13.40
2022-11-04T05:37:01.040Z,13.40
2022-11-04T05:39:28.442Z,13.40
2022-11-04T05:41:56.126Z,13.40
2022-11-04T05:44:23.741Z,13.40
2022-11-04T05:46:51.087Z,13.40
2022-11-04T05:49:18.529Z,13.40
2022-11-04T05:51:45.921Z,13.40
2022-11-04T05:54:13.404Z,13.40
2022-11-04T05:56:41.034Z,13.40
2022-11-04T05:59:08.633Z,13.40
2022-11-04T06:01:38.385Z,13.40
2022-11-04T06:04:07.159Z,13.40
2022-11-04T06:06:36.661Z,13.40
2022-11-04T06:09:04.489Z,13.40
2022-11-04T06:11:33.156Z,13.40
2022-11-04T06:14:00.624Z,13.30
2022-11-04T06:16:28.380Z,13.30
2022-11-04T06:18:58.549Z,13.30
2022-11-04T06:21:31.463Z,13.30
2022-11-04T06:23:59.688Z,13.30
2022-11-04T06:26:28.607Z,13.30
2022-11-04T06:28:57.585Z,13.30
2022-11-04T06:31:25.156Z,13.30
2022-11-04T06:33:52.599Z,13.30
2022-11-04T06:36:20.367Z,13.30
2022-11-04T06:38:48.002Z,13.30
2022-11-04T06:41:16.991Z,13.30
2022-11-04T06:43:44.670Z,13.30
2022-11-04T06:46:35.458Z,13.20
2022-11-04T06:49:04.144Z,13.30
2022-11-04T06:51:32.357Z,13.30
2022-11-04T06:53:59.902Z,13.30
2022-11-04T06:56:27.399Z,13.30
2022-11-04T06:58:55.717Z,13.30
2022-11-04T07:01:27.020Z,13.20
2022-11-04T07:03:57.235Z,13.30
2022-11-04T07:06:25.925Z,13.20
2022-11-04T07:08:53.837Z,13.20
2022-11-04T07:11:22.221Z,13.20
2022-11-04T07:13:49.776Z,13.20
2022-11-04T07:16:18.320Z,13.20
2022-11-04T07:18:46.165Z,13.20
2022-11-04T07:21:13.878Z,13.20
2022-11-04T07:23:41.502Z,13.20
2022-11-04T07:26:11.492Z,13.20
2022-11-04T07:28:40.093Z,13.20
2022-11-04T07:31:10.575Z,13.30
2022-11-04T07:33:38.361Z,13.30
2022-11-04T07:36:08.299Z,13.30
2022-11-04T07:38:35.617Z,13.30
2022-11-04T07:41:03.056Z,13.30
2022-11-04T07:43:30.767Z,13.40
2022-11-04T07:46:00.706Z,13.40
2022-11-04T07:48:28.369Z,13.40
2022-11-04T07:51:00.538Z,13.50
2022-11-04T07:53:29.781Z,13.50
2022-11-04T07:55:57.518Z,13.50
2022-11-04T07:58:25.966Z,13.50
2022-11-04T08:01:05.252Z,13.60
2022-11-04T08:03:34.180Z,13.60
2022-11-04T08:06:04.435Z,13.60
2022-11-04T08:08:32.268Z,13.70
2022-11-04T08:11:02.954Z,13.70
2022-11-04T08:13:33.415Z,13.70
2022-11-04T08:16:12.393Z,13.80
2022-11-04T08:18:40.961Z,13.80
2022-11-04T08:21:09.260Z,13.80
2022-11-04T08:23:37.336Z,13.80
2022-11-04T08:26:10.505Z,13.80
2022-11-04T08:28:38.393Z,13.80
2022-11-04T08:31:09.469Z,13.90
2022-11-04T08:33:37.042Z,13.80
2022-11-04T08:36:09.200Z,13.90
2022-11-04T08:38:37.368Z,13.80
2022-11-04T08:41:07.430Z,13.80
2022-11-04T08:43:34.982Z,13.80
2022-11-04T08:46:03.870Z,13.80
2022-11-04T08:48:31.387Z,13.80
2022-11-04T08:50:58.947Z,13.80
2022-11-04T08:53:26.388Z,13.80
2022-11-04T08:55:53.883Z,13.80
2022-11-04T08:58:23.227Z,13.80
2022-11-04T09:00:51.443Z,13.80
2022-11-04T09:03:18.969Z,13.80
2022-11-04T09:05:49.009Z,13.80
2022-11-04T09:08:17.995Z,13.80
2022-11-04T09:10:47.409Z,13.80
2022-11-04T09:13:16.079Z,13.80
2022-11-04T09:15:43.924Z,13.70
2022-11-04T09:18:11.318Z,13.70
2022-11-04T09:20:41.475Z,13.70
2022-11-04T09:23:09.744Z,13.70
2022-11-04T09:25:37.914Z,13.70
2022-11-04T09:28:06.190Z,13.70
2022-11-04T09:30:33.711Z,13.70
2022-11-04T09:33:01.369Z,13.70
2022-11-04T09:35:28.989Z,13.70
2022-11-04T09:37:56.618Z,13.70
2022-11-04T09:40:25.864Z,13.70
2022-11-04T09:43:25.239Z,13.70
2022-11-04T09:45:52.846Z,13.70
2022-11-04T09:48:35.151Z,13.70
2022-11-04T09:51:06.577Z,13.70
2022-11-04T09:53:56.311Z,13.70
2022-11-04T09:56:32.229Z,13.70
2022-11-04T09:59:03.986Z,13.70
2022-11-04T10:01:49.398Z,13.70
2022-11-04T10:04:24.482Z,13.70
2022-11-04T10:07:14.043Z,13.70
2022-11-04T10:10:06.283Z,13.70
2022-11-04T10:12:57.101Z,13.70
2022-11-04T10:15:47.737Z,13.70
2022-11-04T10:18:21.090Z,13.70
2022-11-04T10:21:06.476Z,13.70
2022-11-04T10:23:45.955Z,13.80
2022-11-04T10:26:25.195Z,13.80
2022-11-04T10:29:04.261Z,13.80
2022-11-04T10:31:32.027Z,13.80
2022-11-04T10:34:41.958Z,13.80
2022-11-04T10:37:12.123Z,13.80
2022-11-04T10:39:45.583Z,13.90
2022-11-04T10:42:19.608Z,13.90
2022-11-04T10:44:49.213Z,13.90
2022-11-04T10:47:54.909Z,13.90
2022-11-04T10:50:34.707Z,13.90
2022-11-04T10:53:13.273Z,14.00
2022-11-04T10:55:52.529Z,14.00
2022-11-04T10:58:47.415Z,14.10
2022-11-04T11:01:35.370Z,14.10
2022-11-04T11:04:07.591Z,14.20
2022-11-04T11:06:36.685Z,14.30
2022-11-04T11:09:29.410Z,14.30
2022-11-04T11:12:23.284Z,14.30
2022-11-04T11:14:54.317Z,14.30
2022-11-04T11:17:25.374Z,14.40
2022-11-04T11:20:08.278Z,14.40
2022-11-04T11:22:38.584Z,14.40
2022-11-04T11:25:17.769Z,14.50
2022-11-04T11:27:52.578Z,14.50
2022-11-04T11:30:26.449Z,14.50
2022-11-04T11:33:18.510Z,14.50
2022-11-04T11:36:17.030Z,14.60
2022-11-04T11:38:58.782Z,14.60
2022-11-04T11:41:33.747Z,14.60
2022-11-04T11:44:20.137Z,14.60
2022-11-04T11:46:55.162Z,14.60
2022-11-04T11:49:30.370Z,14.60
2022-11-04T11:52:17.763Z,14.60
2022-11-04T11:54:49.519Z,14.60
2022-11-04T11:57:37.120Z,14.60
2022-11-04T12:10:01.087Z,14.70
2022-11-04T12:12:38.129Z,14.80
2022-11-04T12:15:24.959Z,14.80
2022-11-04T12:18:08.308Z,14.80
2022-11-04T12:20:49.155Z,14.90
2022-11-04T12:23:39.786Z,14.90
2022-11-04T12:26:24.537Z,15.00
2022-11-04T12:29:15.251Z,15.00
2022-11-04T12:31:59.110Z,15.00
2022-11-04T12:35:03.706Z,15.00
2022-11-04T12:37:43.086Z,15.00
2022-11-04T12:40:25.173Z,15.10
2022-11-04T12:43:01.802Z,15.10
2022-11-04T12:45:47.538Z,15.10
2022-11-04T12:48:45.085Z,15.10
2022-11-04T12:51:28.181Z,15.10
2022-11-04T12:54:24.659Z,15.10
2022-11-04T12:57:08.042Z,15.10
2022-11-04T12:59:44.605Z,15.10
2022-11-04T13:02:36.063Z,15.20
2022-11-04T13:05:19.497Z,15.20
2022-11-04T13:07:54.919Z,15.10
2022-11-04T13:10:31.422Z,15.10
2022-11-04T13:13:01.987Z,15.10
2022-11-04T13:15:34.805Z,15.10
2022-11-04T13:18:07.593Z,15.10
2022-11-04T13:21:03.288Z,15.10
2022-11-04T13:23:39.466Z,15.10
2022-11-04T13:26:12.637Z,15.00
2022-11-04T13:28:42.039Z,15.00
2022-11-04T13:31:27.926Z,15.00
2022-11-04T13:34:23.047Z,14.90
2022-11-04T13:37:09.181Z,14.80
2022-11-04T13:39:52.606Z,14.80
2022-11-04T13:42:31.932Z,14.80
2022-11-04T13:45:12.170Z,14.80
2022-11-04T13:47:55.187Z,14.70
2022-11-04T13:51:04.826Z,14.70
2022-11-04T13:54:01.572Z,14.60
2022-11-04T13:56:37.393Z,14.50
2022-11-04T13:59:25.974Z,14.50
2022-11-04T14:02:23.296Z,14.50
2022-11-04T14:04:50.699Z,14.50
2022-11-04T14:07:18.603Z,14.40
2022-11-04T14:09:53.814Z,14.40
2022-11-04T14:12:33.217Z,14.40
2022-11-04T14:15:13.182Z,14.40
2022-11-04T14:17:41.611Z,14.40
2022-11-04T14:20:29.810Z,14.40
2022-11-04T14:23:00.796Z,14.40
2022-11-04T14:25:44.205Z,14.40
2022-11-04T14:28:14.461Z,14.40
2022-11-04T14:30:46.496Z,14.40
2022-11-04T14:33:23.893Z,14.40
2022-11-04T14:35:54.517Z,14.40
2022-11-04T14:38:26.970Z,14.30
2022-11-04T14:41:22.948Z,14.30
2022-11-04T14:43:52.525Z,14.30
2022-11-04T14:46:25.325Z,14.30
2022-11-04T14:48:55.747Z,14.20
2022-11-04T14:51:33.626Z,14.20
2022-11-04T14:54:20.009Z,14.20
2022-11-04T14:56:47.282Z,14.20
2022-11-04T14:59:23.378Z,14.10
2022-11-04T15:01:52.374Z,14.10
2022-11-04T15:04:30.898Z,14.10
2022-11-04T15:07:01.226Z,14.00
2022-11-04T15:09:31.482Z,14.00
2022-11-04T15:12:32.580Z,14.00
2022-11-04T15:15:00.201Z,13.90
2022-11-04T15:17:31.222Z,13.90
2022-11-04T15:20:01.829Z,13.90
2022-11-04T15:22:30.499Z,13.80
2022-11-04T15:25:05.714Z,13.80
2022-11-04T15:27:34.547Z,13.70
2022-11-04T15:30:03.897Z,13.70
2022-11-04T15:32:32.155Z,13.70
2022-11-04T15:35:00.285Z,13.70
2022-11-04T15:37:29.401Z,13.60
2022-11-04T15:39:58.098Z,13.60
2022-11-04T15:42:40.640Z,13.60
2022-11-04T15:45:30.127Z,13.50
2022-11-04T15:48:29.600Z,13.50
2022-11-04T15:51:04.729Z,13.40
2022-11-04T15:53:46.650Z,13.40
2022-11-04T15:56:19.443Z,13.30
2022-11-04T15:58:47.230Z,13.30
2022-11-04T16:01:18.731Z,13.30
2022-11-04T16:04:00.337Z,13.20
2022-11-04T16:07:01.958Z,13.20
2022-11-04T16:09:29.438Z,13.20
2022-11-04T16:12:34.007Z,13.10
2022-11-04T16:15:01.364Z,13.10
2022-11-04T16:17:30.001Z,13.10
2022-11-04T16:20:04.060Z,13.00
2022-11-04T16:22:35.360Z,13.00
2022-11-04T16:25:05.283Z,12.90
2022-11-04T16:27:35.386Z,12.90
2022-11-04T16:30:17.349Z,12.80
2022-11-04T16:32:48.485Z,12.80
2022-11-04T16:35:24.750Z,12.80
2022-11-04T16:37:53.142Z,12.70
2022-11-04T16:40:21.598Z,12.70
2022-11-04T16:42:50.554Z,12.70
2022-11-04T16:45:33.053Z,12.70
2022-11-04T16:48:00.864Z,12.60
2022-11-04T16:50:29.090Z,12.60
2022-11-04T16:52:58.314Z,12.60
2022-11-04T16:55:26.905Z,12.60
2022-11-04T16:58:07.638Z,12.60
2022-11-04T17:00:35.234Z,12.50
2022-11-04T17:03:20.956Z,12.50
2022-11-04T17:05:55.552Z,12.50
2022-11-04T17:08:23.943Z,12.40
2022-11-04T17:10:51.718Z,12.40
2022-11-04T17:13:19.177Z,12.40
2022-11-04T17:15:47.171Z,12.40
2022-11-04T17:18:16.978Z,12.30
2022-11-04T17:20:50.941Z,12.30
2022-11-04T17:23:18.650Z,12.30
2022-11-04T17:25:46.488Z,12.30
2022-11-04T17:28:14.636Z,12.30
2022-11-04T17:30:43.635Z,12.30
2022-11-04T17:33:14.270Z,12.20
2022-11-04T17:35:43.762Z,12.20
2022-11-04T17:38:12.194Z,12.20
2022-11-04T17:40:58.233Z,12.20
2022-11-04T17:43:44.937Z,12.10
2022-11-04T17:46:32.391Z,12.10
2022-11-04T17:49:01.098Z,12.10
2022-11-04T17:51:29.186Z,12.10
2022-11-04T17:53:56.734Z,12.10
2022-11-04T17:56:25.107Z,12.00
2022-11-04T17:58:53.507Z,12.00
2022-11-04T18:01:23.325Z,12.00
2022-11-04T18:03:53.512Z,12.00
2022-11-04T18:06:22.127Z,12.00
2022-11-04T18:08:51.695Z,11.90
2022-11-04T18:11:38.065Z,11.90
2022-11-04T18:14:05.729Z,11.90
2022-11-04T18:16:33.157Z,11.80
2022-11-04T18:19:01.057Z,11.80
2022-11-04T18:21:29.169Z,11.70
2022-11-04T18:23:56.982Z,11.70
2022-11-04T18:26:25.404Z,11.70
2022-11-04T18:28:53.991Z,11.70
2022-11-04T18:31:46.128Z,11.70
2022-11-04T18:34:17.721Z,11.60
2022-11-04T18:36:46.756Z,11.60
2022-11-04T18:39:17.215Z,11.60
2022-11-04T18:41:45.832Z,11.60
2022-11-04T18:44:21.782Z,11.60
2022-11-04T18:46:50.472Z,11.60
2022-11-04T18:49:18.296Z,11.60
2022-11-04T18:51:45.879Z,11.60
2022-11-04T18:54:14.780Z,11.60
2022-11-04T18:56:42.815Z,11.60
2022-11-04T18:59:11.542Z,11.60
2022-11-04T19:01:39.717Z,11.70
2022-11-04T19:04:08.193Z,11.70
2022-11-04T19:06:39.590Z,11.70
2022-11-04T19:09:40.215Z,11.70
2022-11-04T19:12:16.424Z,11.70
2022-11-04T19:14:44.083Z,11.80
2022-11-04T19:17:11.610Z,11.80
2022-11-04T19:19:40.100Z,11.80
2022-11-04T19:22:07.538Z,11.80
2022-11-04T19:24:34.866Z,11.80
2022-11-04T19:27:02.307Z,11.80
2022-11-04T19:29:30.118Z,11.80
2022-11-04T19:31:57.443Z,11.80
2022-11-04T19:34:25.431Z,11.80
2022-11-04T19:36:52.864Z,11.80
2022-11-04T19:39:20.114Z,11.80
2022-11-04T19:42:06.318Z,11.80
2022-11-04T19:44:33.657Z,11.80
2022-11-04T19:47:03.303Z,11.80
2022-11-04T19:49:31.571Z,11.80
2022-11-04T19:51:59.903Z,11.80
2022-11-04T19:54:28.537Z,11.80
2022-11-04T19:56:56.332Z,11.80
2022-11-04T19:59:24.083Z,11.80
2022-11-04T20:01:51.773Z,11.80
2022-11-04T20:04:19.362Z,11.80
2022-11-04T20:06:46.853Z,11.80
2022-11-04T20:09:14.168Z,11.70
2022-11-04T20:12:00.670Z,11.70
2022-11-04T20:14:29.086Z,11.70
2022-11-04T20:16:56.628Z,11.70
2022-11-04T20:19:24.049Z,11.70
2022-11-04T20:21:51.550Z,11.70
2022-11-04T20:24:19.097Z,11.70
2022-11-04T20:26:47.489Z,11.70
2022-11-04T20:29:18.350Z,11.70
2022-11-04T20:31:46.285Z,11.70
2022-11-04T20:34:14.747Z,11.70
2022-11-04T20:36:42.819Z,11.70
2022-11-04T20:39:13.246Z,11.70
2022-11-04T20:41:41.554Z,11.70
2022-11-04T20:44:13.870Z,11.70
2022-11-04T20:46:42.602Z,11.60
2022-11-04T20:49:10.693Z,11.60
2022-11-04T20:51:48.680Z,11.60
2022-11-04T20:54:17.932Z,11.60
2022-11-04T20:56:45.689Z,11.60
2022-11-04T20:59:13.988Z,11.60
2022-11-04T21:01:43.459Z,11.60
2022-11-04T21:04:20.097Z,11.60
2022-11-04T21:06:49.372Z,11.60
2022-11-04T21:09:18.786Z,11.60
2022-11-04T21:11:46.884Z,11.60
2022-11-04T21:14:16.180Z,11.60
2022-11-04T21:16:43.817Z,11.50
2022-11-04T21:19:11.962Z,11.50
2022-11-04T21:21:43.413Z,11.50
2022-11-04T21:24:13.499Z,11.50
2022-11-04T21:26:41.624Z,11.50
2022-11-04T21:29:12.752Z,11.50
2022-11-04T21:31:40.857Z,11.50
2022-11-04T21:34:08.322Z,11.50
2022-11-04T21:36:35.823Z,11.50
2022-11-04T21:39:05.349Z,11.50
2022-11-04T21:41:33.656Z,11.50
2022-11-04T21:44:04.267Z,11.50
2022-11-04T21:46:33.357Z,11.50
2022-11-04T21:49:01.334Z,11.50
2022-11-04T21:51:30.736Z,11.50
2022-11-04T21:53:59.060Z,11.50
2022-11-04T21:56:29.296Z,11.50
2022-11-04T21:58:56.738Z,11.50
2022-11-04T22:01:26.396Z,11.50
2022-11-04T22:03:58.800Z,11.50
2022-11-04T22:06:33.677Z,11.40
2022-11-04T22:09:04.843Z,11.40
2022-11-04T22:11:34.257Z,11.40
2022-11-04T22:14:04.507Z,11.40
2022-11-04T22:16:34.420Z,11.30
2022-11-04T22:19:04.120Z,11.30
2022-11-04T22:21:32.671Z,11.30
2022-11-04T22:24:00.827Z,11.30
2022-11-04T22:26:31.042Z,11.30
2022-11-04T22:28:59.227Z,11.30
2022-11-04T22:31:31.932Z,11.30
2022-11-04T22:34:00.657Z,11.30
2022-11-04T22:36:28.481Z,11.20
2022-11-04T22:38:56.174Z,11.20
2022-11-04T22:41:31.880Z,11.20
2022-11-04T22:43:59.358Z,11.20
2022-11-04T22:46:29.594Z,11.20
2022-11-04T22:48:57.043Z,11.20
2022-11-04T22:51:24.555Z,11.20
2022-11-04T22:53:56.970Z,11.20
2022-11-04T22:56:27.741Z,11.20
2022-11-04T22:58:55.346Z,11.20
2022-11-04T23:01:23.078Z,11.20
2022-11-04T23:03:52.132Z,11.20
2022-11-04T23:06:19.782Z,11.20
2022-11-04T23:08:47.328Z,11.20
2022-11-04T23:11:37.082Z,11.20
2022-11-04T23:14:23.341Z,11.20
2022-11-04T23:17:10.385Z,11.20
2022-11-04T23:19:38.187Z,11.20
2022-11-04T23:22:25.154Z,11.20
2022-11-04T23:25:05.588Z,11.20
2022-11-04T23:27:55.349Z,11.20
2022-11-04T23:30:26.929Z,11.20
2022-11-04T23:32:56.799Z,11.20
2022-11-04T23:35:45.731Z,11.20
2022-11-04T23:38:13.260Z,11.20
2022-11-04T23:40:41.475Z,11.20
2022-11-04T23:43:09.213Z,11.20
2022-11-04T23:45:55.554Z,11.20
2022-11-04T23:48:41.383Z,11.10
2022-11-04T23:51:29.810Z,11.20
2022-11-04T23:54:15.468Z,11.10
2022-11-04T23:57:01.535Z,11.10
2022-11-04T23:59:47.530Z,11.10
